Urb Luquillo Lomas, Puerto Rico
Current Conditions -  °F | °C
As of 10:53 AM on Tuesday 21 Oct 2014 (Local Time) from TJNR Reporting Station
Scattered Clouds Scattered Clouds  
Wind Chill: 86°   Ceiling: Unl
Heat Index: 95°   Visibility: 10mi
Dew Point: 75°   Wind: 7mph
Humidity: 70%   Direction: 70°ENE
Pressure: 30.01"   Gusts: NA
Location:  18.3744°N, 65.7168°W
Report Text: TJNR 211453Z AUTO 07006KT 10SM FEW026 SCT032 30/24 A3001 RMK AO2 SLP162 T03000239 51008
Loading
Personal Weather Stations






























Interactive Weather Map
Tropical Storm Tracking
New forecast layout! Learn more

10-Day Weather Forecast

Advertisements
Track Severe Weather on mobile